Time;durP1;ratioP1;P1;durP2;ratioP2;P2;SDS_P1;SDS_P2;PMS_P1;PMS_P2;Temp;Humidity;BMP_temperature;BMP_pressure;BME280_temperature;BME280_humidity;BME280_pressure;Samples;Min_cycle;Max_cycle;Signal;HPM_P1;HPM_P2
2023/03/21 00:01:04;;;;;;;45.75;19.23;;;8.90;99.90;;;;;;5125660;27;20468;-76
2023/03/21 00:03:32;;;;;;;39.13;19.13;;;8.90;99.90;;;;;;5117286;27;20054;-76
2023/03/21 00:05:58;;;;;;;34.60;17.85;;;8.90;99.90;;;;;;5122018;27;20039;-75
2023/03/21 00:08:25;;;;;;;42.35;18.60;;;9.00;99.90;;;;;;5098790;28;20062;-76
2023/03/21 00:10:58;;;;;;;36.33;17.83;;;8.90;99.90;;;;;;5138554;27;20042;-76
2023/03/21 00:13:25;;;;;;;41.03;17.90;;;8.90;99.90;;;;;;5125945;27;20039;-76
2023/03/21 00:15:53;;;;;;;39.03;16.70;;;8.80;99.90;;;;;;5130727;27;20096;-76
2023/03/21 00:18:21;;;;;;;41.85;17.70;;;8.80;99.90;;;;;;5124067;27;20043;-76
2023/03/21 00:20:57;;;;;;;;;;;8.90;99.90;;;;;;5107923;27;20055;-76
2023/03/21 00:23:27;;;;;;;31.40;15.68;;;8.90;99.90;;;;;;5099668;27;19935;-76
2023/03/21 00:25:53;;;;;;;33.35;15.18;;;8.90;99.90;;;;;;5121192;27;20526;-75
2023/03/21 00:28:19;;;;;;;36.13;17.05;;;8.90;99.90;;;;;;5099780;28;20039;-76
2023/03/21 00:30:45;;;;;;;34.83;16.92;;;8.80;99.90;;;;;;5135394;27;20039;-76
2023/03/21 00:33:11;;;;;;;30.25;15.70;;;8.90;99.90;;;;;;5106362;28;20131;-76
2023/03/21 00:35:38;;;;;;;36.60;15.95;;;8.90;99.90;;;;;;5114579;27;20098;-76
2023/03/21 00:38:03;;;;;;;31.10;16.05;;;8.80;99.90;;;;;;5119583;27;20110;-76
2023/03/21 00:40:29;;;;;;;35.00;15.60;;;8.90;99.90;;;;;;5116049;27;20078;-76
2023/03/21 00:42:55;;;;;;;32.85;15.68;;;8.80;99.90;;;;;;5121041;27;20036;-76
2023/03/21 00:45:21;;;;;;;40.90;16.98;;;8.90;99.90;;;;;;5122657;27;20035;-76
2023/03/21 00:47:46;;;;;;;42.20;16.45;;;8.90;99.90;;;;;;5120745;27;20126;-75
2023/03/21 00:50:12;;;;;;;35.13;15.65;;;8.90;99.90;;;;;;5126065;27;20519;-76
2023/03/21 00:52:38;;;;;;;48.78;17.23;;;8.90;99.90;;;;;;5117025;27;20095;-75
2023/03/21 00:55:06;;;;;;;43.75;17.00;;;8.90;99.90;;;;;;5146622;27;20456;-75
2023/03/21 00:57:31;;;;;;;46.27;18.20;;;8.90;99.90;;;;;;5112699;27;20047;-76
2023/03/21 00:59:58;;;;;;;67.40;19.88;;;8.90;99.90;;;;;;5126377;27;20047;-75
2023/03/21 01:02:25;;;;;;;52.90;19.17;;;8.80;99.90;;;;;;5117856;27;20047;-76
2023/03/21 01:04:54;;;;;;;59.53;18.65;;;8.90;99.90;;;;;;5114491;27;20050;-76
2023/03/21 01:07:20;;;;;;;72.68;22.05;;;9.00;99.90;;;;;;5118018;27;20058;-75
2023/03/21 01:09:46;;;;;;;83.43;22.85;;;9.00;99.90;;;;;;5117649;27;20039;-76
2023/03/21 01:12:11;;;;;;;91.53;24.35;;;8.90;99.90;;;;;;5102650;28;20043;-75
2023/03/21 01:14:37;;;;;;;94.03;25.05;;;8.90;99.90;;;;;;5140715;27;20031;-76
2023/03/21 01:17:03;;;;;;;85.20;24.70;;;8.90;99.90;;;;;;5121717;27;20114;-75
2023/03/21 01:19:29;;;;;;;107.43;26.60;;;8.90;99.90;;;;;;5115195;27;20122;-75
2023/03/21 01:21:56;;;;;;;90.10;27.27;;;8.90;99.90;;;;;;5131027;27;20322;-75
2023/03/21 01:24:21;;;;;;;107.63;27.58;;;8.90;99.90;;;;;;5095248;28;20103;-74
2023/03/21 01:26:47;;;;;;;100.93;26.88;;;8.90;99.90;;;;;;5130344;27;20144;-75
2023/03/21 01:29:13;;;;;;;88.13;25.95;;;8.90;99.90;;;;;;5116183;27;20050;-75
2023/03/21 01:31:38;;;;;;;87.43;26.65;;;8.80;99.90;;;;;;5133257;27;20495;-75
2023/03/21 01:34:04;;;;;;;89.50;26.45;;;8.90;99.90;;;;;;5115712;27;20044;-75
2023/03/21 01:36:30;;;;;;;95.32;26.50;;;8.90;99.90;;;;;;5121874;27;20062;-75
2023/03/21 01:38:56;;;;;;;106.07;26.40;;;8.90;99.90;;;;;;5126244;27;20035;-75
2023/03/21 01:41:28;;;;;;;84.03;25.13;;;8.90;99.90;;;;;;5113078;28;20032;-76
2023/03/21 01:43:54;;;;;;;100.00;26.27;;;8.90;99.90;;;;;;5115691;27;20050;-75
2023/03/21 01:46:43;;;;;;;86.25;26.13;;;9.00;99.90;;;;;;5117835;27;20043;-75
2023/03/21 01:49:33;;;;;;;70.63;23.57;;;8.90;99.90;;;;;;5124944;27;20035;-75
2023/03/21 01:52:12;;;;;;;67.88;22.52;;;8.90;99.90;;;;;;5120865;27;20040;-75
2023/03/21 01:54:40;;;;;;;76.50;22.50;;;8.90;99.90;;;;;;5117425;28;20420;-75
2023/03/21 01:57:10;;;;;;;71.07;23.02;;;9.00;99.90;;;;;;5118656;27;20118;-74
2023/03/21 01:59:45;;;;;;;61.90;21.83;;;9.00;99.90;;;;;;5120996;28;20047;-75
2023/03/21 02:02:23;;;;;;;58.28;20.00;;;9.00;99.90;;;;;;5118548;27;20341;-75
2023/03/21 02:04:54;;;;;;;72.00;23.15;;;9.00;99.90;;;;;;5120675;28;20496;-75
2023/03/21 02:07:34;;;;;;;64.78;21.13;;;8.90;99.90;;;;;;5114189;27;20499;-74
2023/03/21 02:10:03;;;;;;;64.00;21.38;;;9.00;99.90;;;;;;5105377;28;20058;-74
2023/03/21 02:12:30;;;;;;;68.38;22.30;;;9.00;99.90;;;;;;5121181;28;21332;-74
2023/03/21 02:14:57;;;;;;;80.05;24.00;;;9.00;99.90;;;;;;5112714;28;22084;-74
2023/03/21 02:17:39;;;;;;;74.85;24.20;;;9.00;99.90;;;;;;5121563;28;20058;-75
2023/03/21 02:20:25;;;;;;;70.82;22.33;;;9.00;99.90;;;;;;5127308;28;20161;-75
2023/03/21 02:23:25;;;;;;;68.40;23.15;;;8.90;99.90;;;;;;5115879;27;20047;-75
2023/03/21 02:26:19;;;;;;;63.77;21.37;;;9.00;99.90;;;;;;5124297;27;20035;-75
2023/03/21 02:29:06;;;;;;;65.88;22.85;;;9.00;99.90;;;;;;5119530;27;20446;-74
2023/03/21 02:31:31;;;;;;;66.45;22.83;;;9.00;99.90;;;;;;5124084;27;20603;-75
2023/03/21 02:34:06;;;;;;;56.90;21.65;;;9.00;99.90;;;;;;5131899;27;20087;-74
2023/03/21 02:36:47;;;;;;;55.13;22.10;;;8.90;99.90;;;;;;5106728;27;20045;-76
2023/03/21 02:39:50;;;;;;;65.57;22.70;;;9.00;99.90;;;;;;5113234;27;20043;-74
2023/03/21 02:42:40;;;;;;;60.42;22.77;;;9.00;99.90;;;;;;5115232;27;20072;-74
2023/03/21 02:45:17;;;;;;;52.50;21.15;;;9.10;99.90;;;;;;5090987;27;20054;-75
2023/03/21 02:48:12;;;;;;;63.40;23.58;;;9.10;99.90;;;;;;5102208;28;20043;-75
2023/03/21 02:50:47;;;;;;;61.35;22.60;;;9.00;99.90;;;;;;5123919;27;20470;-75
2023/03/21 02:53:16;;;;;;;55.60;23.20;;;9.00;99.90;;;;;;5120966;27;20496;-75
2023/03/21 02:55:44;;;;;;;54.30;22.85;;;9.10;99.90;;;;;;5118781;27;20050;-75
2023/03/21 02:58:15;;;;;;;48.72;21.38;;;9.00;99.90;;;;;;5130146;27;20038;-74
2023/03/21 03:00:43;;;;;;;53.50;22.83;;;9.00;99.90;;;;;;5117647;27;20058;-74
2023/03/21 03:03:11;;;;;;;57.47;23.55;;;9.10;99.90;;;;;;5125276;27;20056;-74
2023/03/21 03:05:44;;;;;;;54.65;22.90;;;9.10;99.90;;;;;;5121855;27;20058;-74
2023/03/21 03:08:41;;;;;;;48.22;22.63;;;9.00;99.90;;;;;;5117326;27;20035;-76
2023/03/21 03:11:27;;;;;;;49.15;22.95;;;9.10;99.90;;;;;;5109741;27;20507;-74
2023/03/21 03:14:15;;;;;;;54.13;23.55;;;9.00;99.90;;;;;;5128721;27;20122;-75
2023/03/21 03:17:07;;;;;;;49.10;22.45;;;9.00;99.90;;;;;;5124032;27;20039;-74
2023/03/21 03:19:43;;;;;;;46.10;22.08;;;9.00;99.90;;;;;;5121813;27;20047;-73
2023/03/21 03:22:16;;;;;;;44.53;21.48;;;9.00;99.90;;;;;;5124501;27;20439;-74
2023/03/21 03:24:50;;;;;;;46.50;21.85;;;9.10;99.90;;;;;;5121081;27;20050;-74
2023/03/21 03:27:21;;;;;;;42.05;21.42;;;9.00;99.90;;;;;;5117109;27;20385;-74
2023/03/21 03:29:49;;;;;;;42.47;21.88;;;9.00;99.90;;;;;;5126596;27;20102;-74
2023/03/21 03:32:24;;;;;;;43.38;20.98;;;9.00;99.90;;;;;;5115073;27;20043;-75
2023/03/21 03:34:55;;;;;;;43.17;20.17;;;9.10;99.90;;;;;;5116488;27;20545;-74
2023/03/21 03:37:31;;;;;;;38.80;19.70;;;9.00;99.90;;;;;;5120411;27;20043;-75
2023/03/21 03:40:17;;;;;;;36.90;18.90;;;9.00;99.90;;;;;;5126992;27;20047;-74
2023/03/21 03:42:50;;;;;;;41.17;21.17;;;9.00;99.90;;;;;;5123934;27;20048;-74
2023/03/21 03:45:18;;;;;;;38.83;20.67;;;9.10;99.90;;;;;;5099186;27;20488;-74
2023/03/21 03:47:47;;;;;;;44.60;20.88;;;9.10;99.90;;;;;;5116040;27;20093;-74
2023/03/21 03:50:15;;;;;;;40.20;20.83;;;9.10;99.90;;;;;;5120883;27;20052;-74
2023/03/21 03:52:51;;;;;;;46.22;20.67;;;9.10;99.90;;;;;;5119688;27;20046;-74
2023/03/21 03:55:20;;;;;;;45.25;20.85;;;9.00;99.90;;;;;;5107205;27;20816;-74
2023/03/21 03:57:46;;;;;;;39.85;21.65;;;9.10;99.90;;;;;;5113923;27;20071;-75
2023/03/21 04:00:14;;;;;;;42.65;21.27;;;9.00;99.90;;;;;;5123074;27;20051;-75
2023/03/21 04:02:40;;;;;;;40.60;20.60;;;9.00;99.90;;;;;;5117820;27;20040;-74
2023/03/21 04:05:06;;;;;;;41.17;19.85;;;9.00;99.90;;;;;;5119703;27;20039;-75
2023/03/21 04:07:32;;;;;;;39.72;20.17;;;9.00;99.90;;;;;;5132944;27;20035;-75
2023/03/21 04:09:58;;;;;;;40.63;19.60;;;9.10;99.90;;;;;;5116133;27;20093;-74
2023/03/21 04:12:24;;;;;;;41.25;19.40;;;9.00;99.90;;;;;;5119267;27;20039;-74
2023/03/21 04:14:50;;;;;;;41.15;19.95;;;9.00;99.90;;;;;;5135118;27;20441;-74
2023/03/21 04:17:17;;;;;;;44.20;19.23;;;9.00;99.90;;;;;;5122781;27;20045;-75
2023/03/21 04:19:44;;;;;;;43.13;19.42;;;9.00;99.90;;;;;;5115022;27;20047;-74
2023/03/21 04:22:11;;;;;;;55.15;20.75;;;9.00;99.90;;;;;;5128733;27;20043;-74
2023/03/21 04:24:38;;;;;;;42.15;18.92;;;9.00;99.90;;;;;;5113796;27;20040;-75
2023/03/21 04:27:07;;;;;;;45.15;20.45;;;9.10;99.90;;;;;;5122236;27;20074;-74
2023/03/21 04:29:33;;;;;;;47.60;20.80;;;9.00;99.90;;;;;;5127521;27;20040;-74
2023/03/21 04:31:58;;;;;;;52.42;20.52;;;9.10;99.90;;;;;;5122702;27;20407;-75
2023/03/21 04:34:26;;;;;;;44.17;18.98;;;9.00;99.90;;;;;;5115905;27;20051;-74
2023/03/21 04:36:54;;;;;;;42.47;18.00;;;9.00;99.90;;;;;;5123435;27;20090;-74
2023/03/21 04:39:20;;;;;;;48.00;19.27;;;9.00;99.90;;;;;;5116811;27;20178;-74
2023/03/21 04:41:47;;;;;;;46.53;19.25;;;9.00;99.90;;;;;;5122773;27;20122;-75
2023/03/21 04:44:14;;;;;;;42.47;18.40;;;9.10;99.90;;;;;;5116585;27;20373;-74
2023/03/21 04:46:40;;;;;;;40.05;17.23;;;9.00;99.90;;;;;;5108913;27;20126;-75
2023/03/21 04:49:06;;;;;;;35.15;16.52;;;9.10;99.90;;;;;;5115928;27;20039;-74
2023/03/21 04:51:32;;;;;;;33.15;15.95;;;9.00;99.90;;;;;;5119434;27;20055;-74
2023/03/21 04:53:58;;;;;;;35.97;14.68;;;9.10;99.90;;;;;;5099206;28;20611;-75
2023/03/21 04:56:31;;;;;;;37.38;16.23;;;9.10;99.90;;;;;;5122205;27;20031;-74
2023/03/21 04:58:58;;;;;;;42.80;15.98;;;9.00;99.90;;;;;;5121508;27;20050;-74
2023/03/21 05:01:24;;;;;;;38.20;16.45;;;9.00;99.90;;;;;;5119203;27;20144;-74
2023/03/21 05:03:51;;;;;;;37.03;15.88;;;9.10;99.90;;;;;;5123133;27;20050;-74
2023/03/21 05:06:16;;;;;;;38.67;15.85;;;9.00;99.90;;;;;;5129446;27;20495;-74
2023/03/21 05:08:42;;;;;;;40.97;15.88;;;9.00;99.90;;;;;;5127679;27;20036;-74
2023/03/21 05:11:08;;;;;;;46.60;16.45;;;9.10;99.90;;;;;;5123675;27;21394;-75
2023/03/21 05:13:34;;;;;;;48.17;16.50;;;9.00;99.90;;;;;;5138668;27;20039;-75
2023/03/21 05:15:59;;;;;;;39.25;16.55;;;9.10;99.90;;;;;;5133107;27;20042;-74
2023/03/21 05:18:25;;;;;;;35.70;15.25;;;9.00;99.90;;;;;;5115891;27;20089;-74
2023/03/21 05:20:53;;;;;;;42.58;16.50;;;9.00;99.90;;;;;;5114144;28;20032;-74
2023/03/21 05:23:20;;;;;;;39.30;16.23;;;9.00;99.90;;;;;;5119985;27;20035;-74
2023/03/21 05:25:45;;;;;;;39.55;16.33;;;9.00;99.90;;;;;;5134571;27;20046;-74
2023/03/21 05:28:11;;;;;;;39.50;16.58;;;9.00;99.90;;;;;;5115450;27;20034;-74
2023/03/21 05:30:37;;;;;;;41.10;16.88;;;9.00;99.90;;;;;;5128182;27;20036;-74
2023/03/21 05:33:03;;;;;;;46.67;17.50;;;9.10;99.90;;;;;;5115061;28;20036;-75
2023/03/21 05:35:29;;;;;;;42.65;16.85;;;9.10;99.90;;;;;;5135476;27;20138;-75
2023/03/21 05:37:55;;;;;;;41.95;17.17;;;9.00;99.90;;;;;;5143205;27;20042;-74
2023/03/21 05:40:21;;;;;;;42.65;17.05;;;9.00;99.90;;;;;;5125220;27;20039;-75
2023/03/21 05:42:47;;;;;;;50.53;17.73;;;9.00;99.90;;;;;;5118158;27;20040;-76
2023/03/21 05:45:14;;;;;;;40.20;17.15;;;9.00;99.90;;;;;;5120018;27;20596;-75
2023/03/21 05:47:39;;;;;;;50.42;18.90;;;9.00;99.90;;;;;;5127526;27;20031;-75
2023/03/21 05:50:06;;;;;;;44.33;18.60;;;9.10;99.90;;;;;;5123684;27;20070;-74
2023/03/21 05:52:31;;;;;;;39.90;17.85;;;9.00;99.90;;;;;;5120450;27;20641;-73
2023/03/21 05:54:57;;;;;;;49.28;18.10;;;9.10;99.90;;;;;;5124584;27;20043;-74
2023/03/21 05:57:25;;;;;;;48.17;19.23;;;9.10;99.90;;;;;;5123769;27;20078;-74
2023/03/21 05:59:50;;;;;;;42.33;18.58;;;9.10;99.90;;;;;;5132869;27;21565;-74
2023/03/21 06:02:16;;;;;;;52.60;19.10;;;9.10;99.90;;;;;;5127558;27;20114;-74
2023/03/21 06:04:41;;;;;;;41.00;17.60;;;9.00;99.90;;;;;;5124930;27;20123;-75
2023/03/21 06:07:07;;;;;;;37.72;17.52;;;9.10;99.90;;;;;;5128002;27;20034;-75
2023/03/21 06:09:33;;;;;;;42.20;16.85;;;9.00;99.90;;;;;;5105291;27;20134;-75
2023/03/21 06:11:59;;;;;;;43.40;16.13;;;9.10;99.90;;;;;;5126763;27;20035;-74
2023/03/21 06:14:25;;;;;;;32.70;14.55;;;9.10;99.90;;;;;;5124500;27;20047;-75
2023/03/21 06:16:52;;;;;;;38.95;15.80;;;9.10;99.90;;;;;;5110615;27;20096;-75
2023/03/21 06:19:19;;;;;;;34.58;14.30;;;9.10;99.90;;;;;;5133619;27;20085;-75
2023/03/21 06:21:45;;;;;;;37.55;15.95;;;9.10;99.90;;;;;;5130276;27;20043;-75
2023/03/21 06:24:10;;;;;;;35.67;15.52;;;9.10;99.90;;;;;;5124592;27;20181;-75
2023/03/21 06:26:36;;;;;;;30.38;14.18;;;9.20;99.90;;;;;;5127116;27;20046;-75
2023/03/21 06:29:02;;;;;;;35.55;15.32;;;9.20;99.90;;;;;;5131104;27;20042;-75
2023/03/21 06:31:28;;;;;;;31.27;14.07;;;9.20;99.90;;;;;;5136921;27;20031;-75
2023/03/21 06:33:53;;;;;;;34.10;15.02;;;9.10;99.90;;;;;;5134058;27;20161;-76
2023/03/21 06:36:19;;;;;;;33.92;14.45;;;9.20;99.90;;;;;;5127578;27;20089;-75
2023/03/21 06:38:45;;;;;;;34.70;14.70;;;9.20;99.90;;;;;;5132527;27;20432;-75
2023/03/21 06:41:12;;;;;;;33.70;14.60;;;9.30;99.90;;;;;;5127461;27;20043;-75
2023/03/21 06:43:39;;;;;;;28.83;13.80;;;9.20;99.90;;;;;;5130585;27;20081;-75
2023/03/21 06:46:05;;;;;;;30.23;14.38;;;9.20;99.90;;;;;;5133234;27;20442;-75
2023/03/21 06:48:31;;;;;;;30.40;14.38;;;9.20;99.90;;;;;;5123674;27;20047;-75
2023/03/21 06:50:57;;;;;;;36.40;15.38;;;9.40;99.90;;;;;;5121424;27;20066;-75
2023/03/21 06:53:26;;;;;;;33.58;14.73;;;9.20;99.90;;;;;;5127660;27;20055;-74
2023/03/21 06:55:53;;;;;;;28.63;14.13;;;9.30;99.90;;;;;;5138483;27;20039;-75
2023/03/21 06:58:19;;;;;;;39.38;15.45;;;9.30;99.90;;;;;;5125932;27;20485;-76
2023/03/21 07:00:45;;;;;;;28.83;14.27;;;9.30;99.90;;;;;;5120023;27;20089;-75
2023/03/21 07:03:12;;;;;;;34.92;14.73;;;9.30;99.90;;;;;;5120127;27;20035;-75
2023/03/21 07:05:39;;;;;;;32.50;15.40;;;9.90;99.90;;;;;;5128438;27;20053;-75
2023/03/21 07:08:05;;;;;;;31.40;14.35;;;9.50;99.90;;;;;;5102107;28;20047;-75
2023/03/21 07:10:31;;;;;;;30.40;15.20;;;9.40;99.90;;;;;;5115755;27;20040;-75
2023/03/21 07:12:59;;;;;;;28.50;15.00;;;9.40;99.90;;;;;;5099758;27;20119;-75
2023/03/21 07:15:25;;;;;;;33.10;15.80;;;9.50;99.90;;;;;;5120706;27;20044;-75
2023/03/21 07:17:51;;;;;;;33.70;16.20;;;9.40;99.90;;;;;;5130729;27;20035;-75
2023/03/21 07:20:17;;;;;;;29.58;14.85;;;9.50;99.90;;;;;;5108247;28;20035;-75
2023/03/21 07:22:42;;;;;;;32.70;16.58;;;9.50;99.90;;;;;;5121607;27;20032;-75
2023/03/21 07:25:09;;;;;;;33.58;15.65;;;9.50;99.90;;;;;;5125473;27;20121;-77
2023/03/21 07:27:35;;;;;;;27.83;15.10;;;9.50;99.90;;;;;;5131431;27;20055;-75
2023/03/21 07:30:03;;;;;;;33.00;16.30;;;9.60;99.90;;;;;;5104351;27;20053;-75
2023/03/21 07:32:32;;;;;;;28.48;14.40;;;9.50;99.90;;;;;;5124028;27;20463;-75
2023/03/21 07:34:59;;;;;;;28.95;14.80;;;9.50;99.90;;;;;;5131130;27;20556;-76
2023/03/21 07:37:25;;;;;;;26.10;13.50;;;9.50;99.90;;;;;;5142881;27;20047;-76
2023/03/21 07:39:51;;;;;;;26.75;14.35;;;9.60;99.90;;;;;;5100088;28;20101;-76
2023/03/21 07:42:17;;;;;;;28.08;13.82;;;9.60;99.90;;;;;;5102869;27;20031;-76
2023/03/21 07:44:42;;;;;;;28.17;13.82;;;9.60;99.90;;;;;;5121449;27;20040;-76
2023/03/21 07:47:08;;;;;;;23.65;13.57;;;10.00;99.90;;;;;;5095274;28;20057;-75
2023/03/21 07:49:34;;;;;;;25.00;14.07;;;9.60;99.90;;;;;;5113978;27;20051;-76
2023/03/21 07:52:01;;;;;;;24.15;13.20;;;9.60;99.90;;;;;;5133058;27;20047;-76
2023/03/21 07:54:27;;;;;;;22.95;12.30;;;9.60;99.90;;;;;;5129957;27;20055;-75
2023/03/21 07:56:54;;;;;;;27.25;13.07;;;9.70;99.90;;;;;;5095463;28;20214;-75
2023/03/21 07:59:20;;;;;;;19.98;12.10;;;9.70;99.90;;;;;;5114717;28;20119;-75
2023/03/21 08:01:45;;;;;;;21.17;11.75;;;9.60;99.90;;;;;;5115022;27;20114;-75
2023/03/21 08:04:11;;;;;;;19.67;11.32;;;9.70;99.90;;;;;;5126489;27;20043;-75
2023/03/21 08:06:36;;;;;;;22.27;11.75;;;9.70;99.90;;;;;;5120481;27;20438;-75
2023/03/21 08:09:02;;;;;;;18.02;10.93;;;9.70;99.90;;;;;;5115172;28;20043;-75
2023/03/21 08:11:31;;;;;;;16.73;10.55;;;9.70;99.90;;;;;;5096482;28;20523;-75
2023/03/21 08:13:58;;;;;;;15.73;10.20;;;9.80;99.90;;;;;;5114867;28;20044;-75
2023/03/21 08:16:24;;;;;;;16.23;10.45;;;9.70;99.90;;;;;;5113650;27;20042;-74
2023/03/21 08:18:50;;;;;;;16.95;9.88;;;9.70;99.90;;;;;;5148296;27;20401;-74
2023/03/21 08:21:15;;;;;;;15.40;9.95;;;9.80;99.90;;;;;;5123045;27;20043;-74
2023/03/21 08:23:41;;;;;;;13.90;9.20;;;9.80;99.90;;;;;;5123265;27;20044;-74
2023/03/21 08:26:08;;;;;;;15.48;9.68;;;9.80;99.90;;;;;;5096365;28;20118;-74
2023/03/21 08:28:35;;;;;;;16.90;9.73;;;9.80;99.90;;;;;;5114659;27;20043;-75
2023/03/21 08:31:07;;;;;;;14.80;9.47;;;9.80;99.90;;;;;;5114551;28;20067;-75
2023/03/21 08:33:32;;;;;;;14.25;9.40;;;9.80;99.90;;;;;;5119167;27;20296;-75
2023/03/21 08:35:59;;;;;;;13.70;9.32;;;9.90;99.90;;;;;;5135182;27;20035;-75
2023/03/21 08:38:28;;;;;;;12.07;8.67;;;9.80;99.90;;;;;;5134976;27;20073;-75
2023/03/21 08:40:55;;;;;;;11.88;7.57;;;10.00;99.90;;;;;;5113698;27;20492;-75
2023/03/21 08:43:21;;;;;;;15.00;8.85;;;9.70;99.90;;;;;;5123020;27;20106;-75
2023/03/21 08:45:47;;;;;;;17.80;8.75;;;10.00;99.90;;;;;;5118426;27;20075;-75
2023/03/21 08:48:13;;;;;;;11.77;8.07;;;9.90;99.90;;;;;;5097223;27;20399;-75
2023/03/21 08:50:39;;;;;;;12.02;8.20;;;9.80;99.90;;;;;;5135067;27;20047;-76
2023/03/21 08:53:04;;;;;;;12.10;8.27;;;9.80;99.90;;;;;;5124475;27;20085;-76
2023/03/21 08:55:32;;;;;;;12.63;7.85;;;9.90;99.90;;;;;;5114358;28;20079;-76
2023/03/21 08:57:58;;;;;;;11.27;7.60;;;9.80;99.90;;;;;;5114387;28;20085;-75
2023/03/21 09:00:24;;;;;;;14.30;8.52;;;9.80;99.90;;;;;;5096038;27;20051;-75
2023/03/21 09:02:51;;;;;;;13.32;8.07;;;9.80;99.90;;;;;;5114027;27;20421;-76
2023/03/21 09:05:17;;;;;;;10.45;7.25;;;9.80;99.90;;;;;;5114637;27;20046;-76
2023/03/21 09:07:44;;;;;;;11.90;7.55;;;9.80;99.90;;;;;;5114513;28;20141;-75
2023/03/21 09:10:13;;;;;;;11.45;7.30;;;9.80;99.90;;;;;;5113983;27;20126;-75
2023/03/21 09:12:40;;;;;;;11.73;7.80;;;9.90;99.90;;;;;;5113706;28;20487;-75
2023/03/21 09:15:07;;;;;;;12.40;8.05;;;9.90;99.90;;;;;;5120002;27;20049;-75
2023/03/21 09:17:32;;;;;;;14.57;8.68;;;9.90;99.90;;;;;;5114986;27;20055;-75
2023/03/21 09:19:59;;;;;;;15.50;8.65;;;9.90;99.90;;;;;;5131720;27;20396;-75
2023/03/21 09:22:26;;;;;;;16.38;9.13;;;9.90;99.90;;;;;;5132311;27;20039;-75
2023/03/21 09:24:52;;;;;;;15.70;9.13;;;10.00;99.90;;;;;;5118338;27;20043;-75
2023/03/21 09:27:21;;;;;;;15.65;9.55;;;9.90;99.90;;;;;;5113208;28;20123;-75
2023/03/21 09:29:51;;;;;;;16.45;10.27;;;9.90;99.90;;;;;;5095267;28;20074;-74
2023/03/21 09:32:18;;;;;;;19.75;11.13;;;9.90;99.90;;;;;;5126532;27;20031;-74
2023/03/21 09:34:44;;;;;;;23.15;12.80;;;9.90;99.90;;;;;;5127273;27;20035;-74
2023/03/21 09:37:12;;;;;;;22.75;12.63;;;9.90;99.90;;;;;;5103306;28;20484;-75
2023/03/21 09:39:43;;;;;;;25.95;14.23;;;9.90;99.90;;;;;;5113533;28;20043;-75
2023/03/21 09:42:36;;;;;;;26.50;15.75;;;9.90;99.90;;;;;;5113385;28;20040;-75
2023/03/21 09:45:25;;;;;;;24.00;14.82;;;9.90;99.90;;;;;;5128760;27;20408;-75
2023/03/21 09:47:55;;;;;;;29.90;16.08;;;9.90;99.90;;;;;;5113585;28;20427;-76
2023/03/21 09:50:35;;;;;;;34.03;16.63;;;10.00;99.90;;;;;;5113229;28;20051;-75
2023/03/21 09:53:19;;;;;;;26.52;16.10;;;10.00;99.90;;;;;;5114237;27;20086;-74
2023/03/21 09:55:46;;;;;;;27.27;15.95;;;10.00;99.90;;;;;;5132695;27;20050;-74
2023/03/21 09:58:26;;;;;;;27.50;16.33;;;10.00;99.90;;;;;;5133417;27;20060;-75
2023/03/21 10:00:59;;;;;;;25.10;15.85;;;9.90;99.90;;;;;;5125855;28;20403;-75
2023/03/21 10:03:33;;;;;;;25.00;14.63;;;9.90;99.90;;;;;;5113117;28;20404;-74
2023/03/21 10:06:02;;;;;;;25.70;16.15;;;9.90;99.90;;;;;;5112965;28;20097;-75
2023/03/21 10:08:35;;;;;;;29.85;17.48;;;9.90;99.90;;;;;;5116829;28;20061;-75
2023/03/21 10:11:18;;;;;;;32.25;17.95;;;9.90;99.90;;;;;;5133211;27;20554;-74
2023/03/21 10:13:55;;;;;;;29.45;17.27;;;9.90;99.90;;;;;;5133661;28;20039;-74
2023/03/21 10:16:28;;;;;;;28.38;17.38;;;9.90;99.90;;;;;;5142058;27;20074;-75
2023/03/21 10:18:55;;;;;;;24.00;16.38;;;9.90;99.90;;;;;;5146130;27;20074;-76
2023/03/21 10:21:24;;;;;;;32.42;18.02;;;9.90;99.90;;;;;;5122230;28;20040;-75
2023/03/21 10:23:52;;;;;;;37.90;19.17;;;9.90;99.90;;;;;;5124852;28;20066;-75
2023/03/21 10:26:21;;;;;;;40.22;20.25;;;9.90;99.90;;;;;;5113083;28;20046;-75
2023/03/21 10:28:48;;;;;;;35.58;19.95;;;9.90;99.90;;;;;;5112510;28;20481;-75
2023/03/21 10:31:20;;;;;;;35.83;20.55;;;9.90;99.90;;;;;;5112834;28;20044;-75
2023/03/21 10:33:48;;;;;;;36.72;20.27;;;9.90;99.90;;;;;;5119523;28;20044;-75
2023/03/21 10:36:30;;;;;;;37.45;21.75;;;9.80;99.90;;;;;;5108192;28;20046;-75
2023/03/21 10:39:00;;;;;;;41.78;22.88;;;9.80;99.90;;;;;;5112981;28;20385;-76
2023/03/21 10:41:27;;;;;;;47.08;24.33;;;9.90;99.90;;;;;;5107601;28;20489;-76
2023/03/21 10:44:06;;;;;;;43.20;23.65;;;10.00;99.90;;;;;;5130299;27;20373;-76
2023/03/21 10:46:32;;;;;;;37.63;21.40;;;10.00;99.90;;;;;;5118940;27;20047;-76
2023/03/21 10:48:58;;;;;;;31.80;18.35;;;10.00;99.90;;;;;;5121728;27;20049;-75
2023/03/21 10:51:31;;;;;;;38.00;21.67;;;10.10;99.90;;;;;;5136641;27;20043;-75
2023/03/21 10:54:07;;;;;;;36.58;21.40;;;10.20;99.90;;;;;;5106212;28;20039;-74
2023/03/21 10:56:39;;;;;;;37.45;20.23;;;10.30;99.90;;;;;;5098075;28;20039;-74
2023/03/21 10:59:07;;;;;;;40.45;21.75;;;10.30;99.90;;;;;;5115945;28;20054;-76
2023/03/21 11:01:36;;;;;;;;;;;10.40;99.90;;;;;;5116589;28;20122;-74
2023/03/21 11:04:26;;;;;;;29.17;18.42;;;10.40;99.90;;;;;;5098190;27;19919;-74
2023/03/21 11:06:58;;;;;;;35.78;20.75;;;10.50;99.90;;;;;;5107140;28;20051;-75
2023/03/21 11:09:41;;;;;;;37.15;21.20;;;10.60;99.90;;;;;;5115850;28;20126;-74
2023/03/21 11:12:14;;;;;;;32.70;19.05;;;10.60;99.90;;;;;;5115956;27;20052;-74
2023/03/21 11:14:48;;;;;;;34.83;19.15;;;10.90;99.90;;;;;;5116236;28;20043;-75
2023/03/21 11:17:28;;;;;;;39.70;21.55;;;10.80;99.90;;;;;;5097166;28;20136;-74
2023/03/21 11:20:00;;;;;;;31.50;18.15;;;10.90;99.90;;;;;;5128799;27;20043;-73
2023/03/21 11:22:35;;;;;;;31.77;17.92;;;11.00;99.90;;;;;;5130031;27;20047;-74
2023/03/21 11:25:05;;;;;;;27.60;16.23;;;11.10;99.90;;;;;;5115897;28;20044;-74
2023/03/21 11:27:31;;;;;;;24.70;14.40;;;11.20;99.90;;;;;;5116510;27;20484;-74
2023/03/21 11:30:00;;;;;;;24.77;14.32;;;11.30;99.90;;;;;;5128587;27;20036;-74
2023/03/21 11:32:33;;;;;;;24.23;14.45;;;11.40;99.90;;;;;;5115416;28;20118;-74
2023/03/21 11:35:12;;;;;;;26.20;14.60;;;11.40;99.90;;;;;;5115328;27;20075;-73
2023/03/21 11:37:41;;;;;;;25.10;14.70;;;11.50;99.90;;;;;;5129799;27;20479;-74
2023/03/21 11:40:17;;;;;;;;;;;11.60;99.90;;;;;;5136668;27;20047;-74
2023/03/21 11:42:46;;;;;;;23.52;13.95;;;11.70;99.90;;;;;;5129380;27;19989;-74
2023/03/21 11:45:14;;;;;;;23.63;13.35;;;11.80;99.90;;;;;;5116056;28;20047;-73
2023/03/21 11:47:39;;;;;;;19.42;11.20;;;11.90;99.90;;;;;;5116450;28;20047;-74
2023/03/21 11:50:32;;;;;;;21.52;12.80;;;11.80;99.90;;;;;;5133738;27;20055;-74
2023/03/21 11:53:32;;;;;;;22.23;12.32;;;11.80;99.90;;;;;;5122096;27;20035;-73
2023/03/21 11:56:30;;;;;;;20.98;11.98;;;11.80;99.90;;;;;;5115258;28;20079;-74
2023/03/21 11:59:17;;;;;;;22.85;11.30;;;11.80;99.90;;;;;;5115303;27;20040;-74
2023/03/21 12:02:03;;;;;;;23.95;12.52;;;11.80;99.90;;;;;;5096918;28;20047;-73
2023/03/21 12:04:45;;;;;;;25.73;13.20;;;11.90;99.90;;;;;;5096131;28;20492;-74
2023/03/21 12:07:21;;;;;;;18.30;10.52;;;11.90;99.90;;;;;;5097695;28;20071;-74
2023/03/21 12:10:04;;;;;;;20.55;10.57;;;12.00;99.90;;;;;;5114769;28;20043;-73
2023/03/21 12:12:56;;;;;;;21.00;10.57;;;12.00;99.90;;;;;;5114829;27;20126;-73
2023/03/21 12:15:59;;;;;;;18.83;10.50;;;11.90;99.90;;;;;;5125668;27;20387;-74
2023/03/21 12:18:48;;;;;;;20.30;10.25;;;11.80;99.90;;;;;;5144391;27;20140;-74
2023/03/21 12:21:30;;;;;;;23.95;11.70;;;11.70;99.90;;;;;;5101358;28;20116;-73
2023/03/21 12:24:25;;;;;;;16.67;10.02;;;11.60;99.90;;;;;;5114780;28;20058;-73
2023/03/21 12:26:55;;;;;;;23.92;11.27;;;11.60;99.90;;;;;;5094610;27;20047;-75
2023/03/21 12:29:42;;;;;;;18.00;10.40;;;11.60;99.90;;;;;;5128852;27;20449;-75
2023/03/21 12:32:19;;;;;;;21.70;10.38;;;11.60;99.90;;;;;;5119846;27;20481;-75
2023/03/21 12:35:10;;;;;;;19.52;10.13;;;11.50;99.90;;;;;;5121849;27;20040;-74
2023/03/21 12:37:56;;;;;;;22.40;10.73;;;11.50;99.90;;;;;;5115382;27;20418;-75
2023/03/21 12:40:33;;;;;;;14.50;9.27;;;11.40;99.90;;;;;;5134622;27;20062;-74
2023/03/21 12:43:23;;;;;;;17.35;10.45;;;11.30;99.90;;;;;;5109438;27;20084;-74
2023/03/21 12:46:08;;;;;;;18.10;11.00;;;11.30;99.90;;;;;;5126877;27;20050;-74
2023/03/21 12:48:46;;;;;;;23.88;10.88;;;11.30;99.90;;;;;;5127554;27;20404;-74
2023/03/21 12:51:15;;;;;;;21.80;10.82;;;11.30;99.90;;;;;;5107928;27;20048;-74
2023/03/21 12:53:50;;;;;;;15.70;9.93;;;11.20;99.90;;;;;;5112932;27;20044;-74